sensor_id;sensor_type;location;lat;lon;timestamp;P1;durP1;ratioP1;P2;durP2;ratioP2
75456;SDS011;64036;48.266;14.192;2024-01-30T00:02:20;21.20;;;11.20;;
75456;SDS011;64036;48.266;14.192;2024-01-30T00:05:00;19.30;;;10.60;;
75456;SDS011;64036;48.266;14.192;2024-01-30T00:10:51;19.40;;;10.70;;
75456;SDS011;64036;48.266;14.192;2024-01-30T00:14:16;18.40;;;9.20;;
75456;SDS011;64036;48.266;14.192;2024-01-30T00:20:43;20.70;;;10.90;;
75456;SDS011;64036;48.266;14.192;2024-01-30T00:23:38;21.00;;;10.30;;
75456;SDS011;64036;48.266;14.192;2024-01-30T00:29:57;21.20;;;10.50;;
75456;SDS011;64036;48.266;14.192;2024-01-30T00:36:04;23.30;;;12.70;;
75456;SDS011;64036;48.266;14.192;2024-01-30T00:39:15;21.30;;;11.60;;
75456;SDS011;64036;48.266;14.192;2024-01-30T00:45:21;18.60;;;9.80;;
75456;SDS011;64036;48.266;14.192;2024-01-30T00:51:13;17.40;;;9.80;;
75456;SDS011;64036;48.266;14.192;2024-01-30T00:53:58;18.60;;;10.30;;
75456;SDS011;64036;48.266;14.192;2024-01-30T00:57:02;20.30;;;9.20;;
75456;SDS011;64036;48.266;14.192;2024-01-30T01:00:17;14.20;;;7.20;;
75456;SDS011;64036;48.266;14.192;2024-01-30T01:03:19;15.50;;;8.70;;
75456;SDS011;64036;48.266;14.192;2024-01-30T01:10:23;17.10;;;8.40;;
75456;SDS011;64036;48.266;14.192;2024-01-30T01:16:19;16.60;;;8.80;;
75456;SDS011;64036;48.266;14.192;2024-01-30T01:19:04;17.50;;;8.70;;
75456;SDS011;64036;48.266;14.192;2024-01-30T01:32:13;22.30;;;10.50;;
75456;SDS011;64036;48.266;14.192;2024-01-30T01:41:47;17.70;;;8.80;;
75456;SDS011;64036;48.266;14.192;2024-01-30T01:47:35;17.30;;;9.60;;
75456;SDS011;64036;48.266;14.192;2024-01-30T01:50:32;14.40;;;8.40;;
75456;SDS011;64036;48.266;14.192;2024-01-30T01:53:53;20.00;;;10.10;;
75456;SDS011;64036;48.266;14.192;2024-01-30T02:00:22;18.70;;;8.90;;
75456;SDS011;64036;48.266;14.192;2024-01-30T02:03:28;11.40;;;6.90;;
75456;SDS011;64036;48.266;14.192;2024-01-30T02:10:10;18.60;;;8.90;;
75456;SDS011;64036;48.266;14.192;2024-01-30T02:13:02;16.90;;;7.90;;
75456;SDS011;64036;48.266;14.192;2024-01-30T02:15:58;13.50;;;8.20;;
75456;SDS011;64036;48.266;14.192;2024-01-30T02:22:10;18.10;;;9.60;;
75456;SDS011;64036;48.266;14.192;2024-01-30T02:28:44;20.90;;;10.70;;
75456;SDS011;64036;48.266;14.192;2024-01-30T02:31:30;17.40;;;9.00;;
75456;SDS011;64036;48.266;14.192;2024-01-30T02:34:33;16.20;;;9.00;;
75456;SDS011;64036;48.266;14.192;2024-01-30T02:43:51;18.60;;;9.40;;
75456;SDS011;64036;48.266;14.192;2024-01-30T02:46:45;18.20;;;9.70;;
75456;SDS011;64036;48.266;14.192;2024-01-30T02:52:56;16.70;;;9.50;;
75456;SDS011;64036;48.266;14.192;2024-01-30T03:05:53;17.10;;;9.40;;
75456;SDS011;64036;48.266;14.192;2024-01-30T03:09:05;17.10;;;9.50;;
75456;SDS011;64036;48.266;14.192;2024-01-30T03:11:57;18.70;;;9.70;;
75456;SDS011;64036;48.266;14.192;2024-01-30T03:24:17;17.60;;;9.80;;
75456;SDS011;64036;48.266;14.192;2024-01-30T03:27:08;19.20;;;10.10;;
75456;SDS011;64036;48.266;14.192;2024-01-30T03:30:12;19.20;;;10.70;;
75456;SDS011;64036;48.266;14.192;2024-01-30T03:33:18;15.50;;;9.30;;
75456;SDS011;64036;48.266;14.192;2024-01-30T03:45:54;17.50;;;9.50;;
75456;SDS011;64036;48.266;14.192;2024-01-30T03:48:32;20.10;;;9.80;;
75456;SDS011;64036;48.266;14.192;2024-01-30T03:57:44;17.60;;;9.60;;
75456;SDS011;64036;48.266;14.192;2024-01-30T04:07:45;16.90;;;9.30;;
75456;SDS011;64036;48.266;14.192;2024-01-30T04:10:37;19.20;;;8.80;;
75456;SDS011;64036;48.266;14.192;2024-01-30T04:13:36;21.40;;;9.80;;
75456;SDS011;64036;48.266;14.192;2024-01-30T04:23:08;14.20;;;8.20;;
75456;SDS011;64036;48.266;14.192;2024-01-30T04:29:43;12.30;;;6.90;;
75456;SDS011;64036;48.266;14.192;2024-01-30T04:35:23;14.70;;;7.70;;
75456;SDS011;64036;48.266;14.192;2024-01-30T04:38:40;13.50;;;7.20;;
75456;SDS011;64036;48.266;14.192;2024-01-30T04:42:30;13.00;;;7.40;;
75456;SDS011;64036;48.266;14.192;2024-01-30T04:52:08;16.30;;;8.60;;
75456;SDS011;64036;48.266;14.192;2024-01-30T04:54:49;16.20;;;9.00;;
75456;SDS011;64036;48.266;14.192;2024-01-30T04:58:00;14.30;;;7.90;;
75456;SDS011;64036;48.266;14.192;2024-01-30T05:00:59;12.40;;;7.20;;
75456;SDS011;64036;48.266;14.192;2024-01-30T05:08:00;12.40;;;6.80;;
75456;SDS011;64036;48.266;14.192;2024-01-30T05:10:54;15.70;;;7.70;;
75456;SDS011;64036;48.266;14.192;2024-01-30T05:14:07;13.40;;;7.50;;
75456;SDS011;64036;48.266;14.192;2024-01-30T05:20:36;12.40;;;7.70;;
75456;SDS011;64036;48.266;14.192;2024-01-30T05:23:56;12.70;;;7.40;;
75456;SDS011;64036;48.266;14.192;2024-01-30T05:31:11;14.80;;;7.40;;
75456;SDS011;64036;48.266;14.192;2024-01-30T05:44:02;18.50;;;9.10;;
75456;SDS011;64036;48.266;14.192;2024-01-30T05:47:08;18.00;;;9.00;;
75456;SDS011;64036;48.266;14.192;2024-01-30T06:00:20;20.10;;;10.30;;
75456;SDS011;64036;48.266;14.192;2024-01-30T06:03:12;18.80;;;9.30;;
75456;SDS011;64036;48.266;14.192;2024-01-30T06:08:56;20.70;;;11.50;;
75456;SDS011;64036;48.266;14.192;2024-01-30T06:15:24;18.70;;;9.20;;
75456;SDS011;64036;48.266;14.192;2024-01-30T06:18:17;20.90;;;10.00;;
75456;SDS011;64036;48.266;14.192;2024-01-30T06:24:26;17.00;;;9.20;;
75456;SDS011;64036;48.266;14.192;2024-01-30T06:30:53;17.50;;;9.20;;
75456;SDS011;64036;48.266;14.192;2024-01-30T06:34:17;17.90;;;9.30;;
75456;SDS011;64036;48.266;14.192;2024-01-30T06:43:48;16.70;;;8.20;;
75456;SDS011;64036;48.266;14.192;2024-01-30T06:47:07;16.60;;;8.80;;
75456;SDS011;64036;48.266;14.192;2024-01-30T06:52:59;18.80;;;10.40;;
75456;SDS011;64036;48.266;14.192;2024-01-30T06:58:49;16.80;;;9.50;;
75456;SDS011;64036;48.266;14.192;2024-01-30T07:01:48;19.00;;;10.20;;
75456;SDS011;64036;48.266;14.192;2024-01-30T07:04:49;20.20;;;9.70;;
75456;SDS011;64036;48.266;14.192;2024-01-30T07:07:40;24.40;;;10.70;;
75456;SDS011;64036;48.266;14.192;2024-01-30T07:10:28;17.70;;;9.60;;
75456;SDS011;64036;48.266;14.192;2024-01-30T07:13:40;21.50;;;13.30;;
75456;SDS011;64036;48.266;14.192;2024-01-30T07:26:25;27.20;;;14.60;;
75456;SDS011;64036;48.266;14.192;2024-01-30T07:29:13;12.30;;;6.90;;
75456;SDS011;64036;48.266;14.192;2024-01-30T07:31:49;24.60;;;12.40;;
75456;SDS011;64036;48.266;14.192;2024-01-30T07:34:49;13.60;;;9.10;;
75456;SDS011;64036;48.266;14.192;2024-01-30T07:37:26;21.80;;;10.70;;
75456;SDS011;64036;48.266;14.192;2024-01-30T07:40:11;20.20;;;12.00;;
75456;SDS011;64036;48.266;14.192;2024-01-30T07:43:28;20.00;;;11.30;;
75456;SDS011;64036;48.266;14.192;2024-01-30T07:49:34;25.30;;;14.00;;
75456;SDS011;64036;48.266;14.192;2024-01-30T07:52:28;21.50;;;11.60;;
75456;SDS011;64036;48.266;14.192;2024-01-30T07:58:58;22.50;;;11.80;;
75456;SDS011;64036;48.266;14.192;2024-01-30T08:02:06;21.50;;;12.30;;
75456;SDS011;64036;48.266;14.192;2024-01-30T08:05:12;18.20;;;10.10;;
75456;SDS011;64036;48.266;14.192;2024-01-30T08:08:32;23.00;;;12.50;;
75456;SDS011;64036;48.266;14.192;2024-01-30T08:11:08;21.70;;;10.30;;
75456;SDS011;64036;48.266;14.192;2024-01-30T08:20:09;23.10;;;12.30;;
75456;SDS011;64036;48.266;14.192;2024-01-30T08:22:46;15.80;;;9.10;;
75456;SDS011;64036;48.266;14.192;2024-01-30T08:25:43;24.10;;;14.40;;
75456;SDS011;64036;48.266;14.192;2024-01-30T08:35:06;28.90;;;14.40;;
75456;SDS011;64036;48.266;14.192;2024-01-30T08:37:49;32.40;;;15.50;;
75456;SDS011;64036;48.266;14.192;2024-01-30T08:40:25;31.10;;;16.10;;
75456;SDS011;64036;48.266;14.192;2024-01-30T08:46:09;33.40;;;16.70;;
75456;SDS011;64036;48.266;14.192;2024-01-30T08:52:04;29.80;;;14.40;;
75456;SDS011;64036;48.266;14.192;2024-01-30T08:55:18;16.30;;;9.40;;
75456;SDS011;64036;48.266;14.192;2024-01-30T08:57:52;26.40;;;14.00;;
75456;SDS011;64036;48.266;14.192;2024-01-30T09:00:46;30.60;;;15.40;;
75456;SDS011;64036;48.266;14.192;2024-01-30T09:03:25;29.60;;;15.00;;
75456;SDS011;64036;48.266;14.192;2024-01-30T09:06:16;27.50;;;13.70;;
75456;SDS011;64036;48.266;14.192;2024-01-30T09:09:14;30.20;;;16.70;;
75456;SDS011;64036;48.266;14.192;2024-01-30T09:12:04;26.70;;;13.50;;
75456;SDS011;64036;48.266;14.192;2024-01-30T09:14:59;30.70;;;17.10;;
75456;SDS011;64036;48.266;14.192;2024-01-30T09:17:35;28.70;;;14.40;;
75456;SDS011;64036;48.266;14.192;2024-01-30T09:20:31;32.20;;;16.90;;
75456;SDS011;64036;48.266;14.192;2024-01-30T09:26:13;22.70;;;12.00;;
75456;SDS011;64036;48.266;14.192;2024-01-30T09:29:30;26.20;;;12.80;;
75456;SDS011;64036;48.266;14.192;2024-01-30T09:32:13;32.60;;;16.10;;
75456;SDS011;64036;48.266;14.192;2024-01-30T09:35:00;29.90;;;16.60;;
75456;SDS011;64036;48.266;14.192;2024-01-30T09:37:39;28.70;;;12.00;;
75456;SDS011;64036;48.266;14.192;2024-01-30T09:40:29;36.50;;;17.70;;
75456;SDS011;64036;48.266;14.192;2024-01-30T09:46:23;19.80;;;10.90;;
75456;SDS011;64036;48.266;14.192;2024-01-30T09:49:27;27.10;;;12.90;;
75456;SDS011;64036;48.266;14.192;2024-01-30T09:51:58;30.30;;;15.80;;
75456;SDS011;64036;48.266;14.192;2024-01-30T09:54:29;30.20;;;15.50;;
75456;SDS011;64036;48.266;14.192;2024-01-30T09:57:16;25.40;;;12.60;;
75456;SDS011;64036;48.266;14.192;2024-01-30T10:00:43;32.10;;;15.40;;
75456;SDS011;64036;48.266;14.192;2024-01-30T10:03:30;36.70;;;17.40;;
75456;SDS011;64036;48.266;14.192;2024-01-30T10:06:32;33.00;;;16.50;;
75456;SDS011;64036;48.266;14.192;2024-01-30T10:09:06;36.60;;;17.40;;
75456;SDS011;64036;48.266;14.192;2024-01-30T10:15:12;19.50;;;10.20;;
75456;SDS011;64036;48.266;14.192;2024-01-30T10:17:50;27.20;;;12.90;;
75456;SDS011;64036;48.266;14.192;2024-01-30T10:20:53;32.50;;;16.60;;
75456;SDS011;64036;48.266;14.192;2024-01-30T10:23:46;36.50;;;17.50;;
75456;SDS011;64036;48.266;14.192;2024-01-30T10:26:45;38.30;;;17.80;;
75456;SDS011;64036;48.266;14.192;2024-01-30T10:29:28;28.10;;;14.30;;
75456;SDS011;64036;48.266;14.192;2024-01-30T10:32:25;34.90;;;17.40;;
75456;SDS011;64036;48.266;14.192;2024-01-30T10:35:09;31.70;;;16.00;;
75456;SDS011;64036;48.266;14.192;2024-01-30T10:37:52;22.50;;;12.30;;
75456;SDS011;64036;48.266;14.192;2024-01-30T10:40:30;27.50;;;13.70;;
75456;SDS011;64036;48.266;14.192;2024-01-30T10:42:56;24.40;;;12.70;;
75456;SDS011;64036;48.266;14.192;2024-01-30T10:45:48;31.90;;;15.40;;
75456;SDS011;64036;48.266;14.192;2024-01-30T10:49:03;27.40;;;13.10;;
75456;SDS011;64036;48.266;14.192;2024-01-30T10:55:00;26.90;;;11.40;;
75456;SDS011;64036;48.266;14.192;2024-01-30T11:00:33;42.90;;;19.50;;
75456;SDS011;64036;48.266;14.192;2024-01-30T11:03:29;39.10;;;18.50;;
75456;SDS011;64036;48.266;14.192;2024-01-30T11:06:32;29.20;;;14.60;;
75456;SDS011;64036;48.266;14.192;2024-01-30T11:09:34;36.50;;;16.90;;
75456;SDS011;64036;48.266;14.192;2024-01-30T11:12:23;36.00;;;17.70;;
75456;SDS011;64036;48.266;14.192;2024-01-30T11:19:04;31.80;;;15.30;;
75456;SDS011;64036;48.266;14.192;2024-01-30T11:21:45;24.20;;;13.60;;
75456;SDS011;64036;48.266;14.192;2024-01-30T11:24:24;27.20;;;13.10;;
75456;SDS011;64036;48.266;14.192;2024-01-30T11:27:00;32.50;;;16.20;;
75456;SDS011;64036;48.266;14.192;2024-01-30T11:29:37;39.70;;;19.80;;
75456;SDS011;64036;48.266;14.192;2024-01-30T11:32:06;32.20;;;16.30;;
75456;SDS011;64036;48.266;14.192;2024-01-30T11:34:44;31.60;;;15.80;;
75456;SDS011;64036;48.266;14.192;2024-01-30T11:37:22;29.40;;;13.90;;
75456;SDS011;64036;48.266;14.192;2024-01-30T11:39:54;33.10;;;17.10;;
75456;SDS011;64036;48.266;14.192;2024-01-30T11:42:34;46.70;;;21.50;;
75456;SDS011;64036;48.266;14.192;2024-01-30T11:45:08;39.20;;;18.60;;
75456;SDS011;64036;48.266;14.192;2024-01-30T11:47:39;38.70;;;19.60;;
75456;SDS011;64036;48.266;14.192;2024-01-30T11:50:19;39.90;;;18.70;;
75456;SDS011;64036;48.266;14.192;2024-01-30T11:52:58;37.60;;;17.90;;
75456;SDS011;64036;48.266;14.192;2024-01-30T11:55:38;33.70;;;15.90;;
75456;SDS011;64036;48.266;14.192;2024-01-30T11:58:10;38.10;;;17.40;;
75456;SDS011;64036;48.266;14.192;2024-01-30T12:00:38;33.60;;;15.70;;
75456;SDS011;64036;48.266;14.192;2024-01-30T12:03:13;34.70;;;17.00;;
75456;SDS011;64036;48.266;14.192;2024-01-30T12:05:46;46.80;;;21.40;;
75456;SDS011;64036;48.266;14.192;2024-01-30T12:08:23;35.70;;;18.20;;
75456;SDS011;64036;48.266;14.192;2024-01-30T12:11:01;40.90;;;19.60;;
75456;SDS011;64036;48.266;14.192;2024-01-30T12:13:44;39.20;;;18.70;;
75456;SDS011;64036;48.266;14.192;2024-01-30T12:16:32;39.50;;;17.90;;
75456;SDS011;64036;48.266;14.192;2024-01-30T12:19:24;36.70;;;17.60;;
75456;SDS011;64036;48.266;14.192;2024-01-30T12:22:15;40.50;;;18.00;;
75456;SDS011;64036;48.266;14.192;2024-01-30T12:25:02;41.40;;;19.80;;
75456;SDS011;64036;48.266;14.192;2024-01-30T12:27:34;35.40;;;17.30;;
75456;SDS011;64036;48.266;14.192;2024-01-30T12:30:17;31.00;;;15.00;;
75456;SDS011;64036;48.266;14.192;2024-01-30T12:33:16;34.80;;;16.20;;
75456;SDS011;64036;48.266;14.192;2024-01-30T12:36:07;32.60;;;16.90;;
75456;SDS011;64036;48.266;14.192;2024-01-30T12:44:17;39.40;;;17.80;;
75456;SDS011;64036;48.266;14.192;2024-01-30T12:46:52;39.30;;;19.50;;
75456;SDS011;64036;48.266;14.192;2024-01-30T12:49:33;41.40;;;20.80;;
75456;SDS011;64036;48.266;14.192;2024-01-30T12:52:04;29.30;;;16.60;;
75456;SDS011;64036;48.266;14.192;2024-01-30T12:54:35;43.10;;;20.60;;
75456;SDS011;64036;48.266;14.192;2024-01-30T12:57:31;36.10;;;18.20;;
75456;SDS011;64036;48.266;14.192;2024-01-30T13:03:22;38.00;;;19.10;;
75456;SDS011;64036;48.266;14.192;2024-01-30T13:06:07;39.20;;;19.30;;
75456;SDS011;64036;48.266;14.192;2024-01-30T13:09:02;37.30;;;18.20;;
75456;SDS011;64036;48.266;14.192;2024-01-30T13:11:46;40.30;;;19.30;;
75456;SDS011;64036;48.266;14.192;2024-01-30T13:14:41;42.30;;;19.60;;
75456;SDS011;64036;48.266;14.192;2024-01-30T13:17:16;42.50;;;20.60;;
75456;SDS011;64036;48.266;14.192;2024-01-30T13:20:08;39.30;;;19.00;;
75456;SDS011;64036;48.266;14.192;2024-01-30T13:22:48;39.50;;;17.40;;
75456;SDS011;64036;48.266;14.192;2024-01-30T13:25:42;37.10;;;17.90;;
75456;SDS011;64036;48.266;14.192;2024-01-30T13:28:27;32.70;;;15.20;;
75456;SDS011;64036;48.266;14.192;2024-01-30T13:30:53;32.30;;;15.70;;
75456;SDS011;64036;48.266;14.192;2024-01-30T13:33:39;37.10;;;17.50;;
75456;SDS011;64036;48.266;14.192;2024-01-30T13:36:22;34.00;;;18.10;;
75456;SDS011;64036;48.266;14.192;2024-01-30T13:38:50;33.10;;;16.40;;
75456;SDS011;64036;48.266;14.192;2024-01-30T13:41:42;35.60;;;16.60;;
75456;SDS011;64036;48.266;14.192;2024-01-30T13:44:27;34.90;;;17.80;;
75456;SDS011;64036;48.266;14.192;2024-01-30T13:47:30;39.80;;;19.00;;
75456;SDS011;64036;48.266;14.192;2024-01-30T13:50:04;37.70;;;18.90;;
75456;SDS011;64036;48.266;14.192;2024-01-30T13:52:44;36.00;;;17.90;;
75456;SDS011;64036;48.266;14.192;2024-01-30T13:55:17;41.80;;;19.40;;
75456;SDS011;64036;48.266;14.192;2024-01-30T13:57:51;46.00;;;21.80;;
75456;SDS011;64036;48.266;14.192;2024-01-30T14:00:17;36.40;;;18.70;;
75456;SDS011;64036;48.266;14.192;2024-01-30T14:03:08;41.00;;;20.20;;
75456;SDS011;64036;48.266;14.192;2024-01-30T14:05:52;38.50;;;17.70;;
75456;SDS011;64036;48.266;14.192;2024-01-30T14:08:35;40.90;;;19.40;;
75456;SDS011;64036;48.266;14.192;2024-01-30T14:11:33;41.80;;;20.00;;
75456;SDS011;64036;48.266;14.192;2024-01-30T14:14:19;41.10;;;20.70;;
75456;SDS011;64036;48.266;14.192;2024-01-30T14:19:43;34.60;;;16.40;;
75456;SDS011;64036;48.266;14.192;2024-01-30T14:22:20;37.40;;;18.60;;
75456;SDS011;64036;48.266;14.192;2024-01-30T14:25:19;38.50;;;17.90;;
75456;SDS011;64036;48.266;14.192;2024-01-30T14:28:21;37.40;;;16.40;;
75456;SDS011;64036;48.266;14.192;2024-01-30T14:31:00;37.10;;;16.80;;
75456;SDS011;64036;48.266;14.192;2024-01-30T14:33:54;33.40;;;16.60;;
75456;SDS011;64036;48.266;14.192;2024-01-30T14:36:23;33.50;;;17.40;;
75456;SDS011;64036;48.266;14.192;2024-01-30T14:39:26;37.90;;;17.80;;
75456;SDS011;64036;48.266;14.192;2024-01-30T14:42:15;34.90;;;18.30;;
75456;SDS011;64036;48.266;14.192;2024-01-30T14:44:53;36.70;;;18.10;;
75456;SDS011;64036;48.266;14.192;2024-01-30T14:47:35;28.70;;;13.90;;
75456;SDS011;64036;48.266;14.192;2024-01-30T14:50:21;34.80;;;16.90;;
75456;SDS011;64036;48.266;14.192;2024-01-30T14:53:36;34.60;;;17.70;;
75456;SDS011;64036;48.266;14.192;2024-01-30T14:59:03;31.50;;;15.00;;
75456;SDS011;64036;48.266;14.192;2024-01-30T15:02:19;31.50;;;15.30;;
75456;SDS011;64036;48.266;14.192;2024-01-30T15:05:07;31.90;;;16.30;;
75456;SDS011;64036;48.266;14.192;2024-01-30T15:07:46;38.80;;;18.00;;
75456;SDS011;64036;48.266;14.192;2024-01-30T15:10:27;38.40;;;18.30;;
75456;SDS011;64036;48.266;14.192;2024-01-30T15:13:13;37.20;;;16.80;;
75456;SDS011;64036;48.266;14.192;2024-01-30T15:16:02;35.70;;;19.00;;
75456;SDS011;64036;48.266;14.192;2024-01-30T15:18:42;34.50;;;17.00;;
75456;SDS011;64036;48.266;14.192;2024-01-30T15:24:44;36.40;;;18.10;;
75456;SDS011;64036;48.266;14.192;2024-01-30T15:27:22;42.00;;;19.80;;
75456;SDS011;64036;48.266;14.192;2024-01-30T15:30:02;37.70;;;17.90;;
75456;SDS011;64036;48.266;14.192;2024-01-30T15:32:31;34.80;;;17.00;;
75456;SDS011;64036;48.266;14.192;2024-01-30T15:35:33;33.70;;;14.60;;
75456;SDS011;64036;48.266;14.192;2024-01-30T15:38:27;41.10;;;20.50;;
75456;SDS011;64036;48.266;14.192;2024-01-30T15:41:21;28.30;;;12.60;;
75456;SDS011;64036;48.266;14.192;2024-01-30T15:44:08;36.90;;;17.80;;
75456;SDS011;64036;48.266;14.192;2024-01-30T15:52:45;38.50;;;18.20;;
75456;SDS011;64036;48.266;14.192;2024-01-30T15:55:50;40.40;;;17.70;;
75456;SDS011;64036;48.266;14.192;2024-01-30T15:58:35;29.50;;;14.70;;
75456;SDS011;64036;48.266;14.192;2024-01-30T16:01:28;37.90;;;18.00;;
75456;SDS011;64036;48.266;14.192;2024-01-30T16:07:18;38.70;;;18.80;;
75456;SDS011;64036;48.266;14.192;2024-01-30T16:10:22;27.10;;;13.10;;
75456;SDS011;64036;48.266;14.192;2024-01-30T16:13:39;42.40;;;19.50;;
75456;SDS011;64036;48.266;14.192;2024-01-30T16:19:32;38.10;;;18.50;;
75456;SDS011;64036;48.266;14.192;2024-01-30T16:22:13;31.50;;;14.80;;
75456;SDS011;64036;48.266;14.192;2024-01-30T16:25:19;39.30;;;18.60;;
75456;SDS011;64036;48.266;14.192;2024-01-30T16:31:05;40.90;;;18.20;;
75456;SDS011;64036;48.266;14.192;2024-01-30T16:33:52;38.80;;;17.60;;
75456;SDS011;64036;48.266;14.192;2024-01-30T16:36:45;55.90;;;21.70;;
75456;SDS011;64036;48.266;14.192;2024-01-30T16:41:46;34.70;;;15.30;;
75456;SDS011;64036;48.266;14.192;2024-01-30T16:44:36;32.00;;;15.20;;
75456;SDS011;64036;48.266;14.192;2024-01-30T16:47:27;36.10;;;15.90;;
75456;SDS011;64036;48.266;14.192;2024-01-30T16:50:16;32.70;;;14.10;;
75456;SDS011;64036;48.266;14.192;2024-01-30T16:56:29;35.10;;;15.90;;
75456;SDS011;64036;48.266;14.192;2024-01-30T16:59:41;26.60;;;13.80;;
75456;SDS011;64036;48.266;14.192;2024-01-30T17:02:30;37.10;;;17.50;;
75456;SDS011;64036;48.266;14.192;2024-01-30T17:05:02;31.10;;;14.10;;
75456;SDS011;64036;48.266;14.192;2024-01-30T17:08:17;41.90;;;18.00;;
75456;SDS011;64036;48.266;14.192;2024-01-30T17:11:05;38.70;;;17.70;;
75456;SDS011;64036;48.266;14.192;2024-01-30T17:14:15;43.90;;;19.30;;
75456;SDS011;64036;48.266;14.192;2024-01-30T17:17:22;43.30;;;18.90;;
75456;SDS011;64036;48.266;14.192;2024-01-30T17:20:09;38.60;;;17.00;;
75456;SDS011;64036;48.266;14.192;2024-01-30T17:23:02;42.50;;;16.80;;
75456;SDS011;64036;48.266;14.192;2024-01-30T17:25:59;48.50;;;20.60;;
75456;SDS011;64036;48.266;14.192;2024-01-30T17:28:54;37.40;;;17.40;;
75456;SDS011;64036;48.266;14.192;2024-01-30T17:32:06;33.30;;;15.00;;
75456;SDS011;64036;48.266;14.192;2024-01-30T17:35:13;35.60;;;15.30;;
75456;SDS011;64036;48.266;14.192;2024-01-30T17:38:07;41.80;;;16.90;;
75456;SDS011;64036;48.266;14.192;2024-01-30T17:47:33;37.40;;;16.00;;
75456;SDS011;64036;48.266;14.192;2024-01-30T17:50:28;38.20;;;16.00;;
75456;SDS011;64036;48.266;14.192;2024-01-30T17:53:13;28.80;;;13.50;;
75456;SDS011;64036;48.266;14.192;2024-01-30T17:55:52;32.50;;;14.30;;
75456;SDS011;64036;48.266;14.192;2024-01-30T17:58:36;38.40;;;15.60;;
75456;SDS011;64036;48.266;14.192;2024-01-30T18:02:09;35.60;;;14.30;;
75456;SDS011;64036;48.266;14.192;2024-01-30T18:05:00;33.80;;;14.90;;
75456;SDS011;64036;48.266;14.192;2024-01-30T18:08:02;37.20;;;15.20;;
75456;SDS011;64036;48.266;14.192;2024-01-30T18:10:53;45.30;;;17.90;;
75456;SDS011;64036;48.266;14.192;2024-01-30T18:13:58;34.40;;;13.90;;
75456;SDS011;64036;48.266;14.192;2024-01-30T18:17:39;34.80;;;14.60;;
75456;SDS011;64036;48.266;14.192;2024-01-30T18:20:46;36.10;;;15.70;;
75456;SDS011;64036;48.266;14.192;2024-01-30T18:26:28;37.20;;;16.80;;
75456;SDS011;64036;48.266;14.192;2024-01-30T18:29:39;40.50;;;17.40;;
75456;SDS011;64036;48.266;14.192;2024-01-30T18:33:07;39.00;;;17.70;;
75456;SDS011;64036;48.266;14.192;2024-01-30T18:36:05;42.10;;;19.00;;
75456;SDS011;64036;48.266;14.192;2024-01-30T18:39:11;45.40;;;20.40;;
75456;SDS011;64036;48.266;14.192;2024-01-30T18:42:05;40.30;;;18.20;;
75456;SDS011;64036;48.266;14.192;2024-01-30T18:44:51;38.10;;;17.80;;
75456;SDS011;64036;48.266;14.192;2024-01-30T18:47:37;49.10;;;20.90;;
75456;SDS011;64036;48.266;14.192;2024-01-30T18:50:31;43.20;;;18.40;;
75456;SDS011;64036;48.266;14.192;2024-01-30T19:00:00;49.60;;;20.70;;
75456;SDS011;64036;48.266;14.192;2024-01-30T19:02:59;44.20;;;18.50;;
75456;SDS011;64036;48.266;14.192;2024-01-30T19:06:03;47.60;;;19.60;;
75456;SDS011;64036;48.266;14.192;2024-01-30T19:12:27;40.80;;;17.90;;
75456;SDS011;64036;48.266;14.192;2024-01-30T19:15:27;35.80;;;15.30;;
75456;SDS011;64036;48.266;14.192;2024-01-30T19:18:18;42.40;;;17.30;;
75456;SDS011;64036;48.266;14.192;2024-01-30T19:27:58;27.40;;;12.40;;
75456;SDS011;64036;48.266;14.192;2024-01-30T19:31:05;39.20;;;16.80;;
75456;SDS011;64036;48.266;14.192;2024-01-30T19:33:48;36.80;;;15.60;;
75456;SDS011;64036;48.266;14.192;2024-01-30T19:37:00;49.40;;;19.20;;
75456;SDS011;64036;48.266;14.192;2024-01-30T19:39:57;58.50;;;21.10;;
75456;SDS011;64036;48.266;14.192;2024-01-30T19:42:57;54.40;;;19.10;;
75456;SDS011;64036;48.266;14.192;2024-01-30T19:45:45;52.00;;;20.50;;
75456;SDS011;64036;48.266;14.192;2024-01-30T19:48:32;55.00;;;19.60;;
75456;SDS011;64036;48.266;14.192;2024-01-30T19:51:08;45.40;;;18.50;;
75456;SDS011;64036;48.266;14.192;2024-01-30T19:53:37;43.30;;;16.90;;
75456;SDS011;64036;48.266;14.192;2024-01-30T19:56:06;47.80;;;18.00;;
75456;SDS011;64036;48.266;14.192;2024-01-30T19:58:48;41.30;;;17.00;;
75456;SDS011;64036;48.266;14.192;2024-01-30T20:01:25;43.90;;;16.90;;
75456;SDS011;64036;48.266;14.192;2024-01-30T20:03:51;38.00;;;16.00;;
75456;SDS011;64036;48.266;14.192;2024-01-30T20:20:01;45.40;;;17.20;;
75456;SDS011;64036;48.266;14.192;2024-01-30T20:23:18;42.80;;;16.80;;
75456;SDS011;64036;48.266;14.192;2024-01-30T20:26:06;31.00;;;14.20;;
75456;SDS011;64036;48.266;14.192;2024-01-30T20:28:57;50.80;;;20.50;;
75456;SDS011;64036;48.266;14.192;2024-01-30T20:31:53;48.00;;;19.20;;
75456;SDS011;64036;48.266;14.192;2024-01-30T20:34:50;50.50;;;20.30;;
75456;SDS011;64036;48.266;14.192;2024-01-30T20:40:50;50.10;;;18.60;;
75456;SDS011;64036;48.266;14.192;2024-01-30T20:43:30;57.30;;;19.40;;
75456;SDS011;64036;48.266;14.192;2024-01-30T20:45:56;59.80;;;22.80;;
75456;SDS011;64036;48.266;14.192;2024-01-30T20:48:43;63.70;;;22.70;;
75456;SDS011;64036;48.266;14.192;2024-01-30T20:51:45;44.20;;;17.40;;
75456;SDS011;64036;48.266;14.192;2024-01-30T20:54:35;62.40;;;23.60;;
75456;SDS011;64036;48.266;14.192;2024-01-30T20:57:14;56.00;;;19.90;;
75456;SDS011;64036;48.266;14.192;2024-01-30T20:59:49;38.40;;;16.20;;
75456;SDS011;64036;48.266;14.192;2024-01-30T21:02:43;54.00;;;21.00;;
75456;SDS011;64036;48.266;14.192;2024-01-30T21:05:29;46.20;;;19.60;;
75456;SDS011;64036;48.266;14.192;2024-01-30T21:08:15;47.80;;;19.80;;
75456;SDS011;64036;48.266;14.192;2024-01-30T21:10:58;40.50;;;16.20;;
75456;SDS011;64036;48.266;14.192;2024-01-30T21:14:18;45.90;;;17.40;;
75456;SDS011;64036;48.266;14.192;2024-01-30T21:17:14;41.40;;;16.60;;
75456;SDS011;64036;48.266;14.192;2024-01-30T21:20:38;39.80;;;15.20;;
75456;SDS011;64036;48.266;14.192;2024-01-30T21:23:17;38.70;;;14.50;;
75456;SDS011;64036;48.266;14.192;2024-01-30T21:26:13;41.60;;;16.40;;
75456;SDS011;64036;48.266;14.192;2024-01-30T21:28:41;35.60;;;15.10;;
75456;SDS011;64036;48.266;14.192;2024-01-30T21:31:39;37.00;;;15.20;;
75456;SDS011;64036;48.266;14.192;2024-01-30T21:34:34;41.70;;;18.30;;
75456;SDS011;64036;48.266;14.192;2024-01-30T21:37:32;37.70;;;14.20;;
75456;SDS011;64036;48.266;14.192;2024-01-30T21:40:13;39.50;;;15.50;;
75456;SDS011;64036;48.266;14.192;2024-01-30T21:43:04;39.20;;;16.00;;
75456;SDS011;64036;48.266;14.192;2024-01-30T21:45:36;36.20;;;15.50;;
75456;SDS011;64036;48.266;14.192;2024-01-30T21:48:14;31.50;;;13.50;;
75456;SDS011;64036;48.266;14.192;2024-01-30T21:50:57;36.30;;;15.50;;
75456;SDS011;64036;48.266;14.192;2024-01-30T21:53:22;42.50;;;17.50;;
75456;SDS011;64036;48.266;14.192;2024-01-30T21:59:01;35.60;;;14.80;;